Location Littleton, CO, US

ob KCOLITTL9 251810Z AUTO 10000KT CLR 12/M03 A3038 RMK SLPNO 

2018.04.25 1810 UTC
Wind from the E (100 degrees) at Calm MPH ( KT) gusting to 0.0 MPH (0 KT)
Visibility    Mile(s)
Sky Conditions  clear
Temperature 53.70 F (12 C)
Dew Point 27.40 F (-3 C)
Relative Humidity 36%
Pressure   30.38 in. Hg (1029 hPa)
Rain  0.00 in.
Daily Rain  in.

Station Name  Southglenn Weather
Longitude, Latitude  -105.097859501839, 39.5649194844331
Elevation 5630
Station URL http://weather.mfc-cs.com
Software Type VWS V15.00